sensor_id;sensor_type;location;lat;lon;timestamp;P1;durP1;ratioP1;P2;durP2;ratioP2
17947;SDS011;9099;47.958;11.366;2022-08-19T00:00:22;3.38;;;3.17;;
17947;SDS011;9099;47.958;11.366;2022-08-19T00:02:49;3.95;;;3.60;;
17947;SDS011;9099;47.958;11.366;2022-08-19T00:05:16;4.55;;;4.25;;
17947;SDS011;9099;47.958;11.366;2022-08-19T00:07:44;3.97;;;3.78;;
17947;SDS011;9099;47.958;11.366;2022-08-19T00:10:13;3.67;;;3.47;;
17947;SDS011;9099;47.958;11.366;2022-08-19T00:12:42;4.13;;;3.92;;
17947;SDS011;9099;47.958;11.366;2022-08-19T00:15:10;3.63;;;3.42;;
17947;SDS011;9099;47.958;11.366;2022-08-19T00:17:39;3.88;;;3.67;;
17947;SDS011;9099;47.958;11.366;2022-08-19T00:20:07;3.85;;;3.65;;
17947;SDS011;9099;47.958;11.366;2022-08-19T00:22:35;4.28;;;4.00;;
17947;SDS011;9099;47.958;11.366;2022-08-19T00:25:03;4.25;;;3.95;;
17947;SDS011;9099;47.958;11.366;2022-08-19T00:27:32;3.55;;;3.35;;
17947;SDS011;9099;47.958;11.366;2022-08-19T00:30:00;3.95;;;3.70;;
17947;SDS011;9099;47.958;11.366;2022-08-19T00:32:28;4.13;;;3.83;;
17947;SDS011;9099;47.958;11.366;2022-08-19T00:34:56;3.80;;;3.60;;
17947;SDS011;9099;47.958;11.366;2022-08-19T00:37:23;4.72;;;4.25;;
17947;SDS011;9099;47.958;11.366;2022-08-19T00:39:51;3.90;;;3.70;;
17947;SDS011;9099;47.958;11.366;2022-08-19T00:42:20;4.78;;;4.47;;
17947;SDS011;9099;47.958;11.366;2022-08-19T00:44:49;4.15;;;3.85;;
17947;SDS011;9099;47.958;11.366;2022-08-19T00:47:16;5.30;;;5.00;;
17947;SDS011;9099;47.958;11.366;2022-08-19T00:49:45;5.03;;;4.70;;
17947;SDS011;9099;47.958;11.366;2022-08-19T00:52:17;4.47;;;4.18;;
17947;SDS011;9099;47.958;11.366;2022-08-19T00:54:47;4.30;;;4.00;;
17947;SDS011;9099;47.958;11.366;2022-08-19T00:57:17;4.32;;;4.03;;
17947;SDS011;9099;47.958;11.366;2022-08-19T00:59:51;4.90;;;4.50;;
17947;SDS011;9099;47.958;11.366;2022-08-19T01:02:20;5.68;;;5.18;;
17947;SDS011;9099;47.958;11.366;2022-08-19T01:04:47;6.38;;;5.88;;
17947;SDS011;9099;47.958;11.366;2022-08-19T01:07:14;5.90;;;5.50;;
17947;SDS011;9099;47.958;11.366;2022-08-19T01:09:42;5.72;;;5.32;;
17947;SDS011;9099;47.958;11.366;2022-08-19T01:12:09;5.75;;;5.40;;
17947;SDS011;9099;47.958;11.366;2022-08-19T01:14:36;5.47;;;5.07;;
17947;SDS011;9099;47.958;11.366;2022-08-19T01:17:06;5.00;;;4.70;;
17947;SDS011;9099;47.958;11.366;2022-08-19T01:19:35;6.05;;;5.65;;
17947;SDS011;9099;47.958;11.366;2022-08-19T01:22:06;5.93;;;5.53;;
17947;SDS011;9099;47.958;11.366;2022-08-19T01:24:38;6.20;;;5.80;;
17947;SDS011;9099;47.958;11.366;2022-08-19T01:27:06;5.88;;;5.47;;
17947;SDS011;9099;47.958;11.366;2022-08-19T01:29:34;6.30;;;5.90;;
17947;SDS011;9099;47.958;11.366;2022-08-19T01:32:05;5.28;;;4.90;;
17947;SDS011;9099;47.958;11.366;2022-08-19T01:34:33;5.18;;;4.85;;
17947;SDS011;9099;47.958;11.366;2022-08-19T01:37:00;5.50;;;5.00;;
17947;SDS011;9099;47.958;11.366;2022-08-19T01:39:33;5.63;;;5.32;;
17947;SDS011;9099;47.958;11.366;2022-08-19T01:42:02;5.20;;;4.90;;
17947;SDS011;9099;47.958;11.366;2022-08-19T01:44:31;5.40;;;5.10;;
17947;SDS011;9099;47.958;11.366;2022-08-19T01:46:58;5.70;;;5.30;;
17947;SDS011;9099;47.958;11.366;2022-08-19T01:49:25;5.43;;;4.93;;
17947;SDS011;9099;47.958;11.366;2022-08-19T01:51:52;5.30;;;4.90;;
17947;SDS011;9099;47.958;11.366;2022-08-19T01:54:21;5.75;;;5.38;;
17947;SDS011;9099;47.958;11.366;2022-08-19T01:56:49;5.57;;;5.18;;
17947;SDS011;9099;47.958;11.366;2022-08-19T01:59:19;5.40;;;5.00;;
17947;SDS011;9099;47.958;11.366;2022-08-19T02:01:49;5.30;;;4.93;;
17947;SDS011;9099;47.958;11.366;2022-08-19T02:04:16;4.97;;;4.68;;
17947;SDS011;9099;47.958;11.366;2022-08-19T02:06:43;4.72;;;4.43;;
17947;SDS011;9099;47.958;11.366;2022-08-19T02:09:10;4.90;;;4.60;;
17947;SDS011;9099;47.958;11.366;2022-08-19T02:11:37;4.55;;;4.28;;
17947;SDS011;9099;47.958;11.366;2022-08-19T02:14:05;4.78;;;4.47;;
17947;SDS011;9099;47.958;11.366;2022-08-19T02:16:35;4.47;;;4.18;;
17947;SDS011;9099;47.958;11.366;2022-08-19T02:19:03;4.57;;;4.28;;
17947;SDS011;9099;47.958;11.366;2022-08-19T02:21:31;4.35;;;4.05;;
17947;SDS011;9099;47.958;11.366;2022-08-19T02:23:58;5.18;;;4.88;;
17947;SDS011;9099;47.958;11.366;2022-08-19T02:26:25;4.78;;;4.47;;
17947;SDS011;9099;47.958;11.366;2022-08-19T02:28:53;5.20;;;4.90;;
17947;SDS011;9099;47.958;11.366;2022-08-19T02:31:21;5.20;;;4.90;;
17947;SDS011;9099;47.958;11.366;2022-08-19T02:33:52;5.50;;;5.10;;
17947;SDS011;9099;47.958;11.366;2022-08-19T02:36:20;5.28;;;4.88;;
17947;SDS011;9099;47.958;11.366;2022-08-19T02:38:48;4.90;;;4.50;;
17947;SDS011;9099;47.958;11.366;2022-08-19T02:41:15;4.68;;;4.28;;
17947;SDS011;9099;47.958;11.366;2022-08-19T02:43:43;4.63;;;4.32;;
17947;SDS011;9099;47.958;11.366;2022-08-19T02:46:12;4.28;;;4.05;;
17947;SDS011;9099;47.958;11.366;2022-08-19T02:48:42;4.70;;;4.40;;
17947;SDS011;9099;47.958;11.366;2022-08-19T02:51:14;4.60;;;4.30;;
17947;SDS011;9099;47.958;11.366;2022-08-19T02:53:42;4.43;;;4.13;;
17947;SDS011;9099;47.958;11.366;2022-08-19T02:56:09;4.53;;;4.22;;
17947;SDS011;9099;47.958;11.366;2022-08-19T02:58:36;4.47;;;4.18;;
17947;SDS011;9099;47.958;11.366;2022-08-19T03:01:03;4.25;;;3.95;;
17947;SDS011;9099;47.958;11.366;2022-08-19T03:03:30;4.05;;;3.85;;
17947;SDS011;9099;47.958;11.366;2022-08-19T03:06:08;3.85;;;3.65;;
17947;SDS011;9099;47.958;11.366;2022-08-19T03:08:39;3.33;;;3.13;;
17947;SDS011;9099;47.958;11.366;2022-08-19T03:11:12;4.20;;;3.90;;
17947;SDS011;9099;47.958;11.366;2022-08-19T03:13:40;3.85;;;3.53;;
17947;SDS011;9099;47.958;11.366;2022-08-19T03:16:08;4.05;;;3.85;;
17947;SDS011;9099;47.958;11.366;2022-08-19T03:18:35;4.13;;;3.83;;
17947;SDS011;9099;47.958;11.366;2022-08-19T03:21:02;3.40;;;3.20;;
17947;SDS011;9099;47.958;11.366;2022-08-19T03:23:30;3.75;;;3.45;;
17947;SDS011;9099;47.958;11.366;2022-08-19T03:25:59;3.97;;;3.75;;
17947;SDS011;9099;47.958;11.366;2022-08-19T03:28:29;4.10;;;3.88;;
17947;SDS011;9099;47.958;11.366;2022-08-19T03:30:57;3.50;;;3.30;;
17947;SDS011;9099;47.958;11.366;2022-08-19T03:33:27;2.80;;;2.70;;
17947;SDS011;9099;47.958;11.366;2022-08-19T03:36:02;3.40;;;3.20;;
17947;SDS011;9099;47.958;11.366;2022-08-19T03:38:32;3.13;;;2.92;;
17947;SDS011;9099;47.958;11.366;2022-08-19T03:41:05;3.35;;;3.15;;
17947;SDS011;9099;47.958;11.366;2022-08-19T03:43:34;3.33;;;3.13;;
17947;SDS011;9099;47.958;11.366;2022-08-19T03:46:03;3.92;;;3.67;;
17947;SDS011;9099;47.958;11.366;2022-08-19T03:48:32;3.42;;;3.13;;
17947;SDS011;9099;47.958;11.366;2022-08-19T03:51:00;3.20;;;3.00;;
17947;SDS011;9099;47.958;11.366;2022-08-19T03:53:27;3.35;;;3.05;;
17947;SDS011;9099;47.958;11.366;2022-08-19T03:55:55;3.40;;;3.22;;
17947;SDS011;9099;47.958;11.366;2022-08-19T03:58:26;3.83;;;3.53;;
17947;SDS011;9099;47.958;11.366;2022-08-19T04:00:54;3.10;;;2.90;;
17947;SDS011;9099;47.958;11.366;2022-08-19T04:03:21;3.38;;;3.17;;
17947;SDS011;9099;47.958;11.366;2022-08-19T04:05:48;3.17;;;2.97;;
17947;SDS011;9099;47.958;11.366;2022-08-19T04:08:15;3.28;;;3.08;;
17947;SDS011;9099;47.958;11.366;2022-08-19T04:10:45;3.67;;;3.42;;
17947;SDS011;9099;47.958;11.366;2022-08-19T04:13:13;3.05;;;2.85;;
17947;SDS011;9099;47.958;11.366;2022-08-19T04:15:42;3.65;;;3.35;;
17947;SDS011;9099;47.958;11.366;2022-08-19T04:18:12;3.80;;;3.60;;
17947;SDS011;9099;47.958;11.366;2022-08-19T04:20:43;3.80;;;3.40;;
17947;SDS011;9099;47.958;11.366;2022-08-19T04:23:11;3.33;;;3.13;;
17947;SDS011;9099;47.958;11.366;2022-08-19T04:25:39;3.33;;;3.13;;
17947;SDS011;9099;47.958;11.366;2022-08-19T04:28:11;3.88;;;3.58;;
17947;SDS011;9099;47.958;11.366;2022-08-19T04:30:40;3.97;;;3.58;;
17947;SDS011;9099;47.958;11.366;2022-08-19T04:33:10;3.65;;;3.38;;
17947;SDS011;9099;47.958;11.366;2022-08-19T04:35:41;3.50;;;3.30;;
17947;SDS011;9099;47.958;11.366;2022-08-19T04:38:10;3.72;;;3.50;;
17947;SDS011;9099;47.958;11.366;2022-08-19T04:40:39;3.50;;;3.30;;
17947;SDS011;9099;47.958;11.366;2022-08-19T04:43:25;3.58;;;3.25;;
17947;SDS011;9099;47.958;11.366;2022-08-19T04:45:54;3.60;;;3.30;;
17947;SDS011;9099;47.958;11.366;2022-08-19T04:48:22;3.72;;;3.53;;
17947;SDS011;9099;47.958;11.366;2022-08-19T04:50:51;3.88;;;3.58;;
17947;SDS011;9099;47.958;11.366;2022-08-19T04:53:22;4.97;;;4.68;;
17947;SDS011;9099;47.958;11.366;2022-08-19T04:55:53;4.20;;;4.00;;
17947;SDS011;9099;47.958;11.366;2022-08-19T04:58:21;4.45;;;4.15;;
17947;SDS011;9099;47.958;11.366;2022-08-19T05:00:48;4.00;;;3.70;;
17947;SDS011;9099;47.958;11.366;2022-08-19T05:03:17;4.20;;;4.00;;
17947;SDS011;9099;47.958;11.366;2022-08-19T05:05:44;4.18;;;3.78;;
17947;SDS011;9099;47.958;11.366;2022-08-19T05:08:13;3.92;;;3.63;;
17947;SDS011;9099;47.958;11.366;2022-08-19T05:10:44;4.05;;;3.75;;
17947;SDS011;9099;47.958;11.366;2022-08-19T05:13:13;3.78;;;3.58;;
17947;SDS011;9099;47.958;11.366;2022-08-19T05:15:41;3.85;;;3.65;;
17947;SDS011;9099;47.958;11.366;2022-08-19T05:18:08;4.03;;;3.72;;
17947;SDS011;9099;47.958;11.366;2022-08-19T05:20:55;3.50;;;3.30;;
17947;SDS011;9099;47.958;11.366;2022-08-19T05:23:40;3.90;;;3.70;;
17947;SDS011;9099;47.958;11.366;2022-08-19T05:26:07;3.80;;;3.47;;
17947;SDS011;9099;47.958;11.366;2022-08-19T05:28:36;4.30;;;4.00;;
17947;SDS011;9099;47.958;11.366;2022-08-19T05:31:03;3.78;;;3.58;;
17947;SDS011;9099;47.958;11.366;2022-08-19T05:33:30;4.18;;;3.88;;
17947;SDS011;9099;47.958;11.366;2022-08-19T05:35:58;4.20;;;3.90;;
17947;SDS011;9099;47.958;11.366;2022-08-19T05:38:27;3.67;;;3.47;;
17947;SDS011;9099;47.958;11.366;2022-08-19T05:40:55;4.63;;;4.22;;
17947;SDS011;9099;47.958;11.366;2022-08-19T05:43:22;3.38;;;3.17;;
17947;SDS011;9099;47.958;11.366;2022-08-19T05:45:49;4.13;;;3.92;;
17947;SDS011;9099;47.958;11.366;2022-08-19T05:48:16;3.80;;;3.60;;
17947;SDS011;9099;47.958;11.366;2022-08-19T05:50:45;4.65;;;3.67;;
17947;SDS011;9099;47.958;11.366;2022-08-19T05:53:16;4.43;;;4.13;;
17947;SDS011;9099;47.958;11.366;2022-08-19T05:55:43;4.40;;;4.07;;
17947;SDS011;9099;47.958;11.366;2022-08-19T05:58:10;3.85;;;3.55;;
17947;SDS011;9099;47.958;11.366;2022-08-19T06:00:37;4.20;;;3.95;;
17947;SDS011;9099;47.958;11.366;2022-08-19T06:03:05;4.07;;;3.88;;
17947;SDS011;9099;47.958;11.366;2022-08-19T06:05:32;4.68;;;4.28;;
17947;SDS011;9099;47.958;11.366;2022-08-19T06:07:59;4.20;;;3.90;;
17947;SDS011;9099;47.958;11.366;2022-08-19T06:10:27;4.93;;;4.15;;
17947;SDS011;9099;47.958;11.366;2022-08-19T06:12:55;4.25;;;3.90;;
17947;SDS011;9099;47.958;11.366;2022-08-19T06:15:22;4.50;;;4.20;;
17947;SDS011;9099;47.958;11.366;2022-08-19T06:17:50;5.07;;;4.60;;
17947;SDS011;9099;47.958;11.366;2022-08-19T06:20:17;4.82;;;4.43;;
17947;SDS011;9099;47.958;11.366;2022-08-19T06:22:46;4.72;;;4.43;;
17947;SDS011;9099;47.958;11.366;2022-08-19T06:25:16;3.83;;;3.63;;
17947;SDS011;9099;47.958;11.366;2022-08-19T06:27:45;4.90;;;4.60;;
17947;SDS011;9099;47.958;11.366;2022-08-19T06:30:12;5.57;;;5.18;;
17947;SDS011;9099;47.958;11.366;2022-08-19T06:32:39;4.88;;;4.47;;
17947;SDS011;9099;47.958;11.366;2022-08-19T06:35:07;5.55;;;5.15;;
17947;SDS011;9099;47.958;11.366;2022-08-19T06:37:34;6.70;;;6.10;;
17947;SDS011;9099;47.958;11.366;2022-08-19T06:40:03;5.75;;;5.35;;
17947;SDS011;9099;47.958;11.366;2022-08-19T06:42:31;6.07;;;5.68;;
17947;SDS011;9099;47.958;11.366;2022-08-19T06:44:59;5.50;;;5.10;;
17947;SDS011;9099;47.958;11.366;2022-08-19T06:47:29;5.82;;;5.43;;
17947;SDS011;9099;47.958;11.366;2022-08-19T06:49:57;6.82;;;6.32;;
17947;SDS011;9099;47.958;11.366;2022-08-19T06:52:27;6.32;;;5.82;;
17947;SDS011;9099;47.958;11.366;2022-08-19T06:54:55;5.82;;;5.43;;
17947;SDS011;9099;47.958;11.366;2022-08-19T06:57:22;6.05;;;5.55;;
17947;SDS011;9099;47.958;11.366;2022-08-19T06:59:50;8.00;;;7.30;;
17947;SDS011;9099;47.958;11.366;2022-08-19T07:02:19;8.85;;;8.15;;
17947;SDS011;9099;47.958;11.366;2022-08-19T07:04:46;9.63;;;8.65;;
17947;SDS011;9099;47.958;11.366;2022-08-19T07:07:14;8.60;;;7.90;;
17947;SDS011;9099;47.958;11.366;2022-08-19T07:09:42;8.55;;;7.85;;
17947;SDS011;9099;47.958;11.366;2022-08-19T07:12:11;7.93;;;7.32;;
17947;SDS011;9099;47.958;11.366;2022-08-19T07:14:40;8.82;;;8.13;;
17947;SDS011;9099;47.958;11.366;2022-08-19T07:17:10;10.07;;;9.07;;
17947;SDS011;9099;47.958;11.366;2022-08-19T07:19:39;9.98;;;9.13;;
17947;SDS011;9099;47.958;11.366;2022-08-19T07:22:07;11.50;;;10.15;;
17947;SDS011;9099;47.958;11.366;2022-08-19T07:24:36;9.77;;;8.88;;
17947;SDS011;9099;47.958;11.366;2022-08-19T07:27:04;11.32;;;10.32;;
17947;SDS011;9099;47.958;11.366;2022-08-19T07:29:33;11.68;;;10.68;;
17947;SDS011;9099;47.958;11.366;2022-08-19T07:32:01;11.77;;;10.68;;
17947;SDS011;9099;47.958;11.366;2022-08-19T07:34:30;11.40;;;10.40;;
17947;SDS011;9099;47.958;11.366;2022-08-19T07:37:00;12.00;;;10.90;;
17947;SDS011;9099;47.958;11.366;2022-08-19T07:39:30;10.63;;;9.80;;
17947;SDS011;9099;47.958;11.366;2022-08-19T07:42:00;12.85;;;11.73;;
17947;SDS011;9099;47.958;11.366;2022-08-19T07:44:31;11.50;;;10.50;;
17947;SDS011;9099;47.958;11.366;2022-08-19T07:46:59;11.32;;;10.38;;
17947;SDS011;9099;47.958;11.366;2022-08-19T07:49:27;10.98;;;9.98;;
17947;SDS011;9099;47.958;11.366;2022-08-19T07:51:55;12.68;;;11.57;;
17947;SDS011;9099;47.958;11.366;2022-08-19T07:54:25;12.70;;;11.50;;
17947;SDS011;9099;47.958;11.366;2022-08-19T07:56:55;12.88;;;11.65;;
17947;SDS011;9099;47.958;11.366;2022-08-19T07:59:22;12.85;;;11.55;;
17947;SDS011;9099;47.958;11.366;2022-08-19T08:01:49;13.18;;;11.98;;
17947;SDS011;9099;47.958;11.366;2022-08-19T08:04:17;12.18;;;11.00;;
17947;SDS011;9099;47.958;11.366;2022-08-19T08:07:03;12.23;;;11.02;;
17947;SDS011;9099;47.958;11.366;2022-08-19T08:09:49;11.63;;;10.43;;
17947;SDS011;9099;47.958;11.366;2022-08-19T08:12:20;12.27;;;11.13;;
17947;SDS011;9099;47.958;11.366;2022-08-19T08:14:54;11.43;;;10.32;;
17947;SDS011;9099;47.958;11.366;2022-08-19T08:17:23;11.27;;;10.27;;
17947;SDS011;9099;47.958;11.366;2022-08-19T08:19:52;10.30;;;9.40;;
17947;SDS011;9099;47.958;11.366;2022-08-19T08:22:20;11.27;;;10.27;;
17947;SDS011;9099;47.958;11.366;2022-08-19T08:25:05;10.25;;;9.43;;
17947;SDS011;9099;47.958;11.366;2022-08-19T08:27:35;10.45;;;9.45;;
17947;SDS011;9099;47.958;11.366;2022-08-19T08:30:05;10.38;;;9.27;;
17947;SDS011;9099;47.958;11.366;2022-08-19T08:32:34;12.00;;;10.77;;
17947;SDS011;9099;47.958;11.366;2022-08-19T08:35:02;11.23;;;10.23;;
17947;SDS011;9099;47.958;11.366;2022-08-19T08:37:30;10.65;;;9.75;;
17947;SDS011;9099;47.958;11.366;2022-08-19T08:39:57;9.75;;;8.90;;
17947;SDS011;9099;47.958;11.366;2022-08-19T08:42:27;11.18;;;10.20;;
17947;SDS011;9099;47.958;11.366;2022-08-19T08:45:00;11.50;;;10.43;;
17947;SDS011;9099;47.958;11.366;2022-08-19T08:47:35;9.68;;;8.98;;
17947;SDS011;9099;47.958;11.366;2022-08-19T08:50:06;12.95;;;11.75;;
17947;SDS011;9099;47.958;11.366;2022-08-19T08:52:39;12.35;;;11.25;;
17947;SDS011;9099;47.958;11.366;2022-08-19T08:55:12;12.77;;;11.45;;
17947;SDS011;9099;47.958;11.366;2022-08-19T08:57:44;11.10;;;10.10;;
17947;SDS011;9099;47.958;11.366;2022-08-19T09:00:19;12.07;;;10.88;;
17947;SDS011;9099;47.958;11.366;2022-08-19T09:02:48;12.45;;;11.25;;
17947;SDS011;9099;47.958;11.366;2022-08-19T09:05:15;12.73;;;11.52;;
17947;SDS011;9099;47.958;11.366;2022-08-19T09:07:52;12.05;;;10.85;;
17947;SDS011;9099;47.958;11.366;2022-08-19T09:10:27;13.50;;;12.10;;
17947;SDS011;9099;47.958;11.366;2022-08-19T09:13:02;13.35;;;12.02;;
17947;SDS011;9099;47.958;11.366;2022-08-19T09:15:38;13.43;;;12.13;;
17947;SDS011;9099;47.958;11.366;2022-08-19T09:18:11;12.63;;;10.90;;
17947;SDS011;9099;47.958;11.366;2022-08-19T09:20:38;11.25;;;10.15;;
17947;SDS011;9099;47.958;11.366;2022-08-19T09:23:05;11.48;;;10.48;;
17947;SDS011;9099;47.958;11.366;2022-08-19T09:25:33;11.00;;;9.88;;
17947;SDS011;9099;47.958;11.366;2022-08-19T09:28:02;10.18;;;9.23;;
17947;SDS011;9099;47.958;11.366;2022-08-19T09:30:29;8.52;;;7.75;;
17947;SDS011;9099;47.958;11.366;2022-08-19T09:32:58;9.38;;;8.55;;
17947;SDS011;9099;47.958;11.366;2022-08-19T09:35:26;9.00;;;8.30;;
17947;SDS011;9099;47.958;11.366;2022-08-19T09:37:55;9.13;;;8.43;;
17947;SDS011;9099;47.958;11.366;2022-08-19T09:40:23;9.82;;;9.02;;
17947;SDS011;9099;47.958;11.366;2022-08-19T09:42:51;8.18;;;7.60;;
17947;SDS011;9099;47.958;11.366;2022-08-19T09:45:20;8.75;;;7.90;;
17947;SDS011;9099;47.958;11.366;2022-08-19T09:47:47;8.27;;;7.57;;
17947;SDS011;9099;47.958;11.366;2022-08-19T09:50:16;7.70;;;7.05;;
17947;SDS011;9099;47.958;11.366;2022-08-19T09:52:43;7.53;;;6.95;;
17947;SDS011;9099;47.958;11.366;2022-08-19T09:55:10;7.15;;;6.63;;
17947;SDS011;9099;47.958;11.366;2022-08-19T09:57:37;7.35;;;6.85;;
17947;SDS011;9099;47.958;11.366;2022-08-19T10:00:05;7.47;;;6.78;;
17947;SDS011;9099;47.958;11.366;2022-08-19T10:02:36;8.00;;;7.40;;
17947;SDS011;9099;47.958;11.366;2022-08-19T10:05:03;8.35;;;7.75;;
17947;SDS011;9099;47.958;11.366;2022-08-19T10:07:48;9.02;;;8.32;;
17947;SDS011;9099;47.958;11.366;2022-08-19T10:10:16;9.48;;;8.68;;
17947;SDS011;9099;47.958;11.366;2022-08-19T10:12:43;9.70;;;8.82;;
17947;SDS011;9099;47.958;11.366;2022-08-19T10:15:12;9.45;;;8.63;;
17947;SDS011;9099;47.958;11.366;2022-08-19T10:17:41;7.32;;;6.72;;
17947;SDS011;9099;47.958;11.366;2022-08-19T10:20:08;9.57;;;8.70;;
17947;SDS011;9099;47.958;11.366;2022-08-19T10:22:35;8.80;;;7.97;;
17947;SDS011;9099;47.958;11.366;2022-08-19T10:25:03;8.85;;;8.05;;
17947;SDS011;9099;47.958;11.366;2022-08-19T10:27:31;8.88;;;8.07;;
17947;SDS011;9099;47.958;11.366;2022-08-19T10:29:58;8.32;;;7.70;;
17947;SDS011;9099;47.958;11.366;2022-08-19T10:32:26;6.82;;;6.35;;
17947;SDS011;9099;47.958;11.366;2022-08-19T10:34:55;6.40;;;6.00;;
17947;SDS011;9099;47.958;11.366;2022-08-19T10:37:22;6.88;;;6.40;;
17947;SDS011;9099;47.958;11.366;2022-08-19T10:39:49;6.30;;;5.90;;
17947;SDS011;9099;47.958;11.366;2022-08-19T10:42:17;7.55;;;6.95;;
17947;SDS011;9099;47.958;11.366;2022-08-19T10:44:44;6.93;;;6.47;;
17947;SDS011;9099;47.958;11.366;2022-08-19T10:47:13;6.22;;;5.82;;
17947;SDS011;9099;47.958;11.366;2022-08-19T10:49:40;5.70;;;5.30;;
17947;SDS011;9099;47.958;11.366;2022-08-19T10:52:22;6.80;;;6.40;;
17947;SDS011;9099;47.958;11.366;2022-08-19T10:55:02;6.15;;;5.75;;
17947;SDS011;9099;47.958;11.366;2022-08-19T10:57:48;5.90;;;5.50;;
17947;SDS011;9099;47.958;11.366;2022-08-19T11:00:17;6.05;;;5.65;;
17947;SDS011;9099;47.958;11.366;2022-08-19T11:02:43;5.70;;;5.30;;
17947;SDS011;9099;47.958;11.366;2022-08-19T11:05:11;5.75;;;5.40;;
17947;SDS011;9099;47.958;11.366;2022-08-19T11:07:41;5.80;;;5.40;;
17947;SDS011;9099;47.958;11.366;2022-08-19T11:10:10;5.50;;;5.20;;
17947;SDS011;9099;47.958;11.366;2022-08-19T11:12:39;7.38;;;6.88;;
17947;SDS011;9099;47.958;11.366;2022-08-19T11:15:07;4.95;;;4.65;;
17947;SDS011;9099;47.958;11.366;2022-08-19T11:17:36;4.60;;;4.30;;
17947;SDS011;9099;47.958;11.366;2022-08-19T11:20:05;4.05;;;3.85;;
17947;SDS011;9099;47.958;11.366;2022-08-19T11:22:33;3.70;;;3.50;;
17947;SDS011;9099;47.958;11.366;2022-08-19T11:25:01;3.50;;;3.30;;
17947;SDS011;9099;47.958;11.366;2022-08-19T11:27:29;3.47;;;3.28;;
17947;SDS011;9099;47.958;11.366;2022-08-19T11:29:56;3.50;;;3.30;;
17947;SDS011;9099;47.958;11.366;2022-08-19T11:32:23;3.38;;;3.17;;
17947;SDS011;9099;47.958;11.366;2022-08-19T11:34:50;3.20;;;3.00;;
17947;SDS011;9099;47.958;11.366;2022-08-19T11:37:17;2.88;;;2.78;;
17947;SDS011;9099;47.958;11.366;2022-08-19T11:39:44;2.45;;;2.35;;
17947;SDS011;9099;47.958;11.366;2022-08-19T11:42:12;2.13;;;2.03;;
17947;SDS011;9099;47.958;11.366;2022-08-19T11:44:56;2.17;;;2.08;;
17947;SDS011;9099;47.958;11.366;2022-08-19T11:47:23;2.30;;;2.20;;
17947;SDS011;9099;47.958;11.366;2022-08-19T11:49:51;2.55;;;2.38;;
17947;SDS011;9099;47.958;11.366;2022-08-19T11:52:18;2.20;;;2.10;;
17947;SDS011;9099;47.958;11.366;2022-08-19T11:54:45;1.90;;;1.80;;
17947;SDS011;9099;47.958;11.366;2022-08-19T11:57:13;2.05;;;1.95;;
17947;SDS011;9099;47.958;11.366;2022-08-19T11:59:41;1.95;;;1.85;;
17947;SDS011;9099;47.958;11.366;2022-08-19T12:02:08;2.05;;;1.95;;
17947;SDS011;9099;47.958;11.366;2022-08-19T12:04:35;1.90;;;1.80;;
17947;SDS011;9099;47.958;11.366;2022-08-19T12:07:02;4.30;;;4.00;;
17947;SDS011;9099;47.958;11.366;2022-08-19T12:09:29;4.93;;;4.53;;
17947;SDS011;9099;47.958;11.366;2022-08-19T12:11:56;5.25;;;4.95;;
17947;SDS011;9099;47.958;11.366;2022-08-19T12:14:25;7.28;;;6.68;;
17947;SDS011;9099;47.958;11.366;2022-08-19T12:16:53;7.80;;;7.20;;
17947;SDS011;9099;47.958;11.366;2022-08-19T12:19:19;7.82;;;7.22;;
17947;SDS011;9099;47.958;11.366;2022-08-19T12:21:46;6.15;;;5.75;;
17947;SDS011;9099;47.958;11.366;2022-08-19T12:24:13;6.32;;;5.93;;
17947;SDS011;9099;47.958;11.366;2022-08-19T12:26:40;6.47;;;6.05;;
17947;SDS011;9099;47.958;11.366;2022-08-19T12:29:07;5.57;;;5.18;;
17947;SDS011;9099;47.958;11.366;2022-08-19T12:31:35;4.53;;;4.22;;
17947;SDS011;9099;47.958;11.366;2022-08-19T12:34:02;4.13;;;3.85;;
17947;SDS011;9099;47.958;11.366;2022-08-19T12:36:29;4.18;;;3.88;;
17947;SDS011;9099;47.958;11.366;2022-08-19T12:38:57;3.70;;;3.40;;
17947;SDS011;9099;47.958;11.366;2022-08-19T12:41:25;3.60;;;3.40;;
17947;SDS011;9099;47.958;11.366;2022-08-19T12:43:52;3.33;;;3.13;;
17947;SDS011;9099;47.958;11.366;2022-08-19T12:46:19;3.67;;;3.47;;
17947;SDS011;9099;47.958;11.366;2022-08-19T12:48:47;3.05;;;2.95;;
17947;SDS011;9099;47.958;11.366;2022-08-19T12:51:15;3.42;;;3.22;;
17947;SDS011;9099;47.958;11.366;2022-08-19T12:53:44;3.05;;;2.90;;
17947;SDS011;9099;47.958;11.366;2022-08-19T12:56:11;2.83;;;2.63;;
17947;SDS011;9099;47.958;11.366;2022-08-19T12:58:40;3.72;;;3.00;;
17947;SDS011;9099;47.958;11.366;2022-08-19T13:01:07;1.80;;;1.70;;
17947;SDS011;9099;47.958;11.366;2022-08-19T13:03:36;1.75;;;1.60;;
17947;SDS011;9099;47.958;11.366;2022-08-19T13:06:05;1.70;;;1.60;;
17947;SDS011;9099;47.958;11.366;2022-08-19T13:08:32;1.60;;;1.50;;
17947;SDS011;9099;47.958;11.366;2022-08-19T13:11:06;1.30;;;1.30;;
17947;SDS011;9099;47.958;11.366;2022-08-19T13:13:35;1.60;;;1.50;;
17947;SDS011;9099;47.958;11.366;2022-08-19T13:16:06;1.55;;;1.55;;
17947;SDS011;9099;47.958;11.366;2022-08-19T13:18:34;1.73;;;1.63;;
17947;SDS011;9099;47.958;11.366;2022-08-19T13:21:02;2.25;;;2.15;;
17947;SDS011;9099;47.958;11.366;2022-08-19T13:23:32;1.80;;;1.70;;
17947;SDS011;9099;47.958;11.366;2022-08-19T13:26:00;2.22;;;2.13;;
17947;SDS011;9099;47.958;11.366;2022-08-19T13:28:29;2.20;;;2.10;;
17947;SDS011;9099;47.958;11.366;2022-08-19T13:31:17;2.00;;;1.90;;
17947;SDS011;9099;47.958;11.366;2022-08-19T13:34:02;2.05;;;1.95;;
17947;SDS011;9099;47.958;11.366;2022-08-19T13:36:32;2.15;;;2.05;;
17947;SDS011;9099;47.958;11.366;2022-08-19T13:38:59;2.25;;;2.15;;
17947;SDS011;9099;47.958;11.366;2022-08-19T13:41:26;2.00;;;1.90;;
17947;SDS011;9099;47.958;11.366;2022-08-19T13:43:53;2.25;;;2.15;;
17947;SDS011;9099;47.958;11.366;2022-08-19T13:46:20;1.92;;;1.83;;
17947;SDS011;9099;47.958;11.366;2022-08-19T13:48:47;1.80;;;1.70;;
17947;SDS011;9099;47.958;11.366;2022-08-19T13:51:15;1.48;;;1.48;;
17947;SDS011;9099;47.958;11.366;2022-08-19T13:53:45;1.30;;;1.30;;
17947;SDS011;9099;47.958;11.366;2022-08-19T13:56:13;1.60;;;1.50;;
17947;SDS011;9099;47.958;11.366;2022-08-19T13:58:41;1.55;;;1.50;;
17947;SDS011;9099;47.958;11.366;2022-08-19T14:01:08;2.10;;;2.00;;
17947;SDS011;9099;47.958;11.366;2022-08-19T14:03:36;1.80;;;1.70;;
17947;SDS011;9099;47.958;11.366;2022-08-19T14:06:04;1.90;;;1.80;;
17947;SDS011;9099;47.958;11.366;2022-08-19T14:08:31;1.83;;;1.73;;
17947;SDS011;9099;47.958;11.366;2022-08-19T14:10:59;1.90;;;1.80;;
17947;SDS011;9099;47.958;11.366;2022-08-19T14:13:26;1.70;;;1.70;;
17947;SDS011;9099;47.958;11.366;2022-08-19T14:15:53;1.65;;;1.60;;
17947;SDS011;9099;47.958;11.366;2022-08-19T14:18:20;1.60;;;1.60;;
17947;SDS011;9099;47.958;11.366;2022-08-19T14:20:47;1.50;;;1.50;;
17947;SDS011;9099;47.958;11.366;2022-08-19T14:23:14;1.50;;;1.48;;
17947;SDS011;9099;47.958;11.366;2022-08-19T14:25:41;1.85;;;1.75;;
17947;SDS011;9099;47.958;11.366;2022-08-19T14:28:10;1.58;;;1.48;;
17947;SDS011;9099;47.958;11.366;2022-08-19T14:30:37;2.05;;;1.95;;
17947;SDS011;9099;47.958;11.366;2022-08-19T14:33:05;1.10;;;1.00;;
17947;SDS011;9099;47.958;11.366;2022-08-19T14:35:33;0.80;;;0.80;;
17947;SDS011;9099;47.958;11.366;2022-08-19T14:38:01;1.10;;;1.02;;
17947;SDS011;9099;47.958;11.366;2022-08-19T14:40:30;1.10;;;1.10;;
17947;SDS011;9099;47.958;11.366;2022-08-19T14:42:59;0.82;;;0.80;;
17947;SDS011;9099;47.958;11.366;2022-08-19T14:45:30;0.90;;;0.90;;
17947;SDS011;9099;47.958;11.366;2022-08-19T14:47:58;1.20;;;1.20;;
17947;SDS011;9099;47.958;11.366;2022-08-19T14:50:25;1.20;;;1.20;;
17947;SDS011;9099;47.958;11.366;2022-08-19T14:52:57;1.20;;;1.10;;
17947;SDS011;9099;47.958;11.366;2022-08-19T14:55:25;1.10;;;1.10;;